F/V Oceanie — FVBW — position and weather

sailwx.info

Track history (hours):
 
Tides and Currents Weather Stations Pressure Air Temp Water Temp Dewpoint Dewpoint Depression Visibility Wind Speed Wind Dir Waves Ship Positions

F/V Oceanie

Last reported at 2014-Sep-18 15:33 UTC. Time now 2014-Sep-18 19:49 UTC.
Position N 47°44' W 003°22'.

Length 16 m.

Type: Fishing. MMSI: 228370000.

Date/timePositionNaut miles runAvg speedWind from/ knotsBaromVisibWave heightAir tempDewpointWater temp
2014-Sep-18 15:33N 47°44' W 003°22'0 0.1
2014-Sep-18 14:33N 47°44' W 003°22'0 0.0
2014-Sep-18 13:33N 47°44' W 003°22'4 4.1
2014-Sep-18 12:33N 47°40' W 003°23'9 1.7
2014-Sep-18 07:16N 47°32' W 003°28'6 8.8
2014-Sep-18 06:33N 47°37' W 003°23'7 6.8
2014-Sep-18 05:34N 47°44' W 003°22'0 0.0
2014-Sep-17 15:21N 47°44' W 003°22'0 0.0
2014-Sep-17 14:33N 47°44' W 003°22'4 4.0
2014-Sep-17 13:33N 47°40' W 003°23'6 5.9
2014-Sep-17 12:33N 47°34' W 003°26'6 1.2
2014-Sep-17 07:27N 47°37' W 003°34'8 8.4
2014-Sep-17 06:33N 47°41' W 003°24'3 0.2
2014-Sep-16 18:33N 47°44' W 003°22'0 0.0
2014-Sep-16 17:33N 47°44' W 003°22'6 5.6
2014-Sep-16 16:34N 47°38' W 003°23'4 3.7
2014-Sep-16 15:27N 47°35' W 003°27'3 1.6
2014-Sep-16 13:17N 47°34' W 003°32'2 2.0
2014-Sep-16 12:12N 47°32' W 003°32'8 1.4
2014-Sep-16 06:18N 47°38' W 003°40'7 8.8
2014-Sep-16 05:33N 47°40' W 003°30'7 6.8
2014-Sep-16 04:33N 47°44' W 003°22'0 0.0
2014-Sep-15 18:33N 47°44' W 003°22'0 0.0
2014-Sep-15 17:33N 47°44' W 003°22'7 6.9
2014-Sep-15 16:33N 47°40' W 003°31'7 0.6
2014-Sep-15 06:09N 47°33' W 003°29'5 8.3
2014-Sep-15 05:33N 47°37' W 003°24'7 7.1
2014-Sep-15 04:33N 47°44' W 003°22'0 0.0
2014-Sep-14 18:33N 47°44' W 003°22'6 6.5
2014-Sep-14 17:33N 47°37' W 003°23'7 6.4
2014-Sep-14 16:32N 47°34' W 003°32'2 2.1
2014-Sep-14 15:31N 47°36' W 003°33'1 1.1
2014-Sep-14 14:27N 47°34' W 003°33'1 0.7
2014-Sep-14 12:31N 47°34' W 003°31'3 0.6
2014-Sep-14 07:03N 47°33' W 003°27'4 2.6
2014-Sep-14 05:33N 47°36' W 003°24'8 8.0
2014-Sep-14 04:33N 47°44' W 003°22'  
2014-Sep-11 17:24N 47°44' W 003°22'0 0.0
2014-Sep-11 16:33N 47°44' W 003°22'0 0.4
2014-Sep-11 15:33N 47°43' W 003°22'8 8.2
2014-Sep-11 14:33N 47°35' W 003°25'2 0.2
2014-Sep-11 05:28N 47°33' W 003°25'8 8.5
2014-Sep-11 04:33N 47°41' W 003°22'3 0.2
2014-Sep-10 13:12N 47°44' W 003°22'0 0.0
2014-Sep-10 12:33N 47°44' W 003°22'0 0.2
2014-Sep-10 11:33N 47°44' W 003°22'9 9.4
2014-Sep-10 10:33N 47°34' W 003°25'2 0.4
2014-Sep-10 05:32N 47°32' W 003°25'8 8.7
2014-Sep-10 04:33N 47°40' W 003°22'3 0.3
2014-Sep-09 15:34N 47°44' W 003°22'0 0.0
2014-Sep-09 14:34N 47°44' W 003°22'5 4.6
2014-Sep-09 13:33N 47°39' W 003°23'5 0.6
2014-Sep-09 05:17N 47°35' W 003°25'6 8.8
2014-Sep-09 04:34N 47°41' W 003°22'3 0.3
2014-Sep-08 16:33N 47°44' W 003°22'  
Track history (hours):
 
Tides and Currents Weather Stations Pressure Air Temp Water Temp Dewpoint Dewpoint Depression Visibility Wind Speed Wind Dir Waves Ship Positions

F/V Oceanie

Last reported at 2014-Sep-18 15:33 UTC. Time now 2014-Sep-18 19:49 UTC.
Position N 47°44' W 003°22'.

Length 16 m.

Type: Fishing. MMSI: 228370000.

Date/timePositionNaut miles runAvg speedWind from/ knotsBaromVisibWave heightAir tempDewpointWater temp
2014-Sep-18 15:33N 47°44' W 003°22'0 0.1
2014-Sep-18 14:33N 47°44' W 003°22'0 0.0
2014-Sep-18 13:33N 47°44' W 003°22'4 4.1
2014-Sep-18 12:33N 47°40' W 003°23'9 1.7
2014-Sep-18 07:16N 47°32' W 003°28'6 8.8
2014-Sep-18 06:33N 47°37' W 003°23'7 6.8
2014-Sep-18 05:34N 47°44' W 003°22'0 0.0
2014-Sep-17 15:21N 47°44' W 003°22'0 0.0
2014-Sep-17 14:33N 47°44' W 003°22'4 4.0
2014-Sep-17 13:33N 47°40' W 003°23'6 5.9
2014-Sep-17 12:33N 47°34' W 003°26'6 1.2
2014-Sep-17 07:27N 47°37' W 003°34'8 8.4
2014-Sep-17 06:33N 47°41' W 003°24'3 0.2
2014-Sep-16 18:33N 47°44' W 003°22'0 0.0
2014-Sep-16 17:33N 47°44' W 003°22'6 5.6
2014-Sep-16 16:34N 47°38' W 003°23'4 3.7
2014-Sep-16 15:27N 47°35' W 003°27'3 1.6
2014-Sep-16 13:17N 47°34' W 003°32'2 2.0
2014-Sep-16 12:12N 47°32' W 003°32'8 1.4
2014-Sep-16 06:18N 47°38' W 003°40'7 8.8
2014-Sep-16 05:33N 47°40' W 003°30'7 6.8
2014-Sep-16 04:33N 47°44' W 003°22'0 0.0
2014-Sep-15 18:33N 47°44' W 003°22'0 0.0
2014-Sep-15 17:33N 47°44' W 003°22'7 6.9
2014-Sep-15 16:33N 47°40' W 003°31'7 0.6
2014-Sep-15 06:09N 47°33' W 003°29'5 8.3
2014-Sep-15 05:33N 47°37' W 003°24'7 7.1
2014-Sep-15 04:33N 47°44' W 003°22'0 0.0
2014-Sep-14 18:33N 47°44' W 003°22'6 6.5
2014-Sep-14 17:33N 47°37' W 003°23'7 6.4
2014-Sep-14 16:32N 47°34' W 003°32'2 2.1
2014-Sep-14 15:31N 47°36' W 003°33'1 1.1
2014-Sep-14 14:27N 47°34' W 003°33'1 0.7
2014-Sep-14 12:31N 47°34' W 003°31'3 0.6
2014-Sep-14 07:03N 47°33' W 003°27'4 2.6
2014-Sep-14 05:33N 47°36' W 003°24'8 8.0
2014-Sep-14 04:33N 47°44' W 003°22'  
2014-Sep-11 17:24N 47°44' W 003°22'0 0.0
2014-Sep-11 16:33N 47°44' W 003°22'0 0.4
2014-Sep-11 15:33N 47°43' W 003°22'8 8.2
2014-Sep-11 14:33N 47°35' W 003°25'2 0.2
2014-Sep-11 05:28N 47°33' W 003°25'8 8.5
2014-Sep-11 04:33N 47°41' W 003°22'3 0.2
2014-Sep-10 13:12N 47°44' W 003°22'0 0.0
2014-Sep-10 12:33N 47°44' W 003°22'0 0.2
2014-Sep-10 11:33N 47°44' W 003°22'9 9.4
2014-Sep-10 10:33N 47°34' W 003°25'2 0.4
2014-Sep-10 05:32N 47°32' W 003°25'8 8.7
2014-Sep-10 04:33N 47°40' W 003°22'3 0.3
2014-Sep-09 15:34N 47°44' W 003°22'0 0.0
2014-Sep-09 14:34N 47°44' W 003°22'5 4.6
2014-Sep-09 13:33N 47°39' W 003°23'5 0.6
2014-Sep-09 05:17N 47°35' W 003°25'6 8.8
2014-Sep-09 04:34N 47°41' W 003°22'3 0.3
2014-Sep-08 16:33N 47°44' W 003°22'  

Dump ship's entire track history